createdAt,value
2019-03-16T00:00:01.239Z,2.07
2019-03-16T00:05:45.826Z,1.83
2019-03-16T00:08:17.038Z,2.20
2019-03-16T00:10:47.103Z,1.83
2019-03-16T00:13:17.099Z,2.13
2019-03-16T00:15:47.132Z,1.47
2019-03-16T00:18:17.187Z,1.40
2019-03-16T00:20:47.235Z,1.70
2019-03-16T00:23:17.231Z,1.60
2019-03-16T00:25:47.296Z,1.73
2019-03-16T00:28:17.409Z,1.73
2019-03-16T00:30:47.396Z,1.70
2019-03-16T00:33:17.464Z,2.07
2019-03-16T00:35:47.560Z,1.70
2019-03-16T00:38:17.555Z,1.70
2019-03-16T00:40:47.516Z,2.33
2019-03-16T00:43:17.589Z,1.20
2019-03-16T00:45:47.620Z,2.37
2019-03-16T00:48:17.596Z,1.37
2019-03-16T00:50:47.662Z,1.83
2019-03-16T00:53:17.742Z,1.87
2019-03-16T00:55:47.751Z,2.70
2019-03-16T00:58:18.024Z,1.77
2019-03-16T01:00:48.032Z,1.50
2019-03-16T01:03:18.049Z,1.57
2019-03-16T01:05:48.215Z,1.90
2019-03-16T01:08:18.250Z,1.77
2019-03-16T01:10:48.304Z,2.13
2019-03-16T01:13:18.521Z,2.13
2019-03-16T01:15:48.489Z,1.43
2019-03-16T01:18:18.542Z,1.70
2019-03-16T01:20:48.574Z,1.83
2019-03-16T01:23:18.591Z,1.57
2019-03-16T01:25:48.743Z,1.53
2019-03-16T01:28:18.740Z,1.73
2019-03-16T01:30:48.820Z,1.67
2019-03-16T01:33:18.816Z,2.50
2019-03-16T01:35:48.860Z,1.57
2019-03-16T01:38:18.946Z,1.83
2019-03-16T01:40:48.935Z,1.40
2019-03-16T01:43:18.932Z,1.87
2019-03-16T01:45:48.999Z,1.47
2019-03-16T01:48:19.073Z,1.70
2019-03-16T01:50:49.085Z,1.70
2019-03-16T01:53:19.176Z,0.90
2019-03-16T01:55:49.141Z,1.80
2019-03-16T01:58:19.148Z,2.17
2019-03-16T02:00:49.286Z,1.83
2019-03-16T02:03:19.431Z,1.50
2019-03-16T02:05:49.487Z,1.50
2019-03-16T02:08:19.456Z,1.40
2019-03-16T02:10:49.524Z,1.53
2019-03-16T02:13:19.654Z,1.77
2019-03-16T02:15:49.741Z,1.80
2019-03-16T02:18:19.753Z,1.73
2019-03-16T02:20:49.894Z,2.03
2019-03-16T02:23:19.931Z,2.07
2019-03-16T02:25:50.251Z,1.60
2019-03-16T02:28:20.306Z,1.03
2019-03-16T02:30:50.524Z,1.60
2019-03-16T02:33:20.672Z,1.47
2019-03-16T02:35:50.748Z,1.63
2019-03-16T02:38:20.792Z,1.23
2019-03-16T02:40:50.987Z,1.83
2019-03-16T02:43:21.097Z,1.77
2019-03-16T02:45:51.157Z,1.23
2019-03-16T02:48:21.177Z,1.60
2019-03-16T02:50:51.343Z,1.53
2019-03-16T02:53:21.379Z,1.53
2019-03-16T02:55:51.331Z,1.67
2019-03-16T02:58:21.426Z,1.40
2019-03-16T03:00:51.447Z,1.70
2019-03-16T03:03:29.436Z,1.87
2019-03-16T03:08:51.381Z,1.57
2019-03-16T03:11:21.393Z,1.80
2019-03-16T03:13:52.271Z,2.17
2019-03-16T03:16:22.431Z,2.70
2019-03-16T03:18:52.597Z,2.23
2019-03-16T03:21:22.763Z,1.97
2019-03-16T03:23:52.809Z,1.47
2019-03-16T03:26:23.030Z,1.47
2019-03-16T03:28:53.081Z,2.13
2019-03-16T03:31:23.095Z,1.80
2019-03-16T03:34:01.880Z,1.70
2019-03-16T03:36:28.138Z,2.00
2019-03-16T03:38:58.220Z,1.63
2019-03-16T03:41:28.270Z,2.27
2019-03-16T03:43:58.265Z,3.23
2019-03-16T03:46:32.075Z,1.40
2019-03-16T03:49:00.315Z,1.50
2019-03-16T03:51:30.268Z,1.60
2019-03-16T03:54:00.546Z,1.57
2019-03-16T03:56:30.691Z,1.80
2019-03-16T03:59:01.471Z,1.40
2019-03-16T04:01:31.897Z,1.77
2019-03-16T04:04:14.927Z,2.00
2019-03-16T04:06:34.977Z,0.97
2019-03-16T04:09:06.589Z,1.47
2019-03-16T04:11:36.649Z,1.43
2019-03-16T04:14:06.617Z,1.43
2019-03-16T04:16:36.620Z,1.80
2019-03-16T04:19:06.664Z,1.10
2019-03-16T04:21:36.785Z,2.03
2019-03-16T04:24:06.742Z,1.67
2019-03-16T04:26:36.862Z,2.27
2019-03-16T04:29:06.843Z,1.17
2019-03-16T04:31:36.782Z,1.67
2019-03-16T04:34:06.918Z,1.17
2019-03-16T04:36:36.918Z,1.67
2019-03-16T04:39:07.002Z,2.13
2019-03-16T04:41:36.998Z,1.80
2019-03-16T04:44:06.987Z,1.33
2019-03-16T04:46:36.965Z,1.13
2019-03-16T04:49:06.956Z,1.53
2019-03-16T04:51:36.946Z,1.40
2019-03-16T04:54:06.988Z,1.80
2019-03-16T04:56:36.975Z,1.20
2019-03-16T04:59:07.018Z,1.30
2019-03-16T05:01:37.078Z,1.40
2019-03-16T05:04:07.047Z,1.40
2019-03-16T05:06:37.574Z,1.20
2019-03-16T05:09:07.659Z,2.30
2019-03-16T05:11:37.722Z,1.30
2019-03-16T05:14:07.726Z,1.07
2019-03-16T05:16:37.721Z,0.80
2019-03-16T05:19:07.688Z,1.00
2019-03-16T05:21:37.670Z,1.07
2019-03-16T05:24:07.734Z,1.37
2019-03-16T05:26:37.954Z,1.03
2019-03-16T05:29:08.011Z,0.63
2019-03-16T05:31:38.116Z,1.13
2019-03-16T05:34:08.105Z,0.80
2019-03-16T05:36:38.236Z,1.10
2019-03-16T05:39:08.354Z,0.90
2019-03-16T05:41:38.410Z,1.27
2019-03-16T05:44:09.402Z,1.17
2019-03-16T05:46:39.426Z,0.70
2019-03-16T05:49:09.472Z,0.67
2019-03-16T05:51:39.478Z,1.03
2019-03-16T05:54:09.530Z,0.83
2019-03-16T05:56:39.506Z,1.43
2019-03-16T05:59:09.518Z,0.70
2019-03-16T06:01:39.547Z,0.90
2019-03-16T06:07:03.310Z,0.77
2019-03-16T06:09:33.349Z,0.60
2019-03-16T06:12:04.265Z,0.90
2019-03-16T06:14:34.300Z,0.90
2019-03-16T06:17:05.238Z,0.83
2019-03-16T06:19:35.241Z,1.87
2019-03-16T06:22:05.254Z,1.03
2019-03-16T06:24:35.281Z,0.73
2019-03-16T06:27:05.337Z,1.17
2019-03-16T06:29:35.347Z,0.90
2019-03-16T06:32:05.534Z,1.03
2019-03-16T06:34:35.569Z,1.30
2019-03-16T06:37:05.545Z,1.10
2019-03-16T06:39:35.588Z,1.40
2019-03-16T06:42:05.614Z,1.43
2019-03-16T06:44:35.715Z,1.53
2019-03-16T06:47:05.706Z,1.33
2019-03-16T06:49:36.589Z,1.13
2019-03-16T06:52:06.719Z,1.20
2019-03-16T06:54:37.742Z,0.60
2019-03-16T06:57:07.789Z,0.90
2019-03-16T06:59:37.865Z,0.90
2019-03-16T07:02:07.886Z,0.83
2019-03-16T07:04:37.882Z,0.80
2019-03-16T07:07:08.950Z,0.97
2019-03-16T07:09:38.971Z,0.97
2019-03-16T07:12:08.909Z,1.63
2019-03-16T07:14:38.921Z,1.10
2019-03-16T07:17:09.098Z,0.60
2019-03-16T07:19:39.141Z,1.07
2019-03-16T07:22:09.250Z,1.33
2019-03-16T07:24:39.718Z,1.00
2019-03-16T07:27:10.189Z,0.80
2019-03-16T07:29:40.579Z,1.40
2019-03-16T07:32:10.573Z,0.63
2019-03-16T07:34:40.555Z,1.63
2019-03-16T07:37:10.630Z,1.13
2019-03-16T07:39:41.015Z,0.80
2019-03-16T07:42:11.046Z,1.03
2019-03-16T07:44:41.533Z,2.63
2019-03-16T07:47:11.586Z,0.83
2019-03-16T07:49:41.569Z,1.20
2019-03-16T07:52:11.701Z,1.00
2019-03-16T07:54:41.686Z,1.50
2019-03-16T07:57:11.748Z,1.30
2019-03-16T07:59:41.836Z,1.27
2019-03-16T08:02:12.071Z,1.00
2019-03-16T08:04:43.496Z,1.00
2019-03-16T08:07:14.327Z,1.20
2019-03-16T08:09:44.747Z,1.47
2019-03-16T08:12:15.104Z,1.80
2019-03-16T08:14:45.323Z,1.52
2019-03-16T08:17:15.301Z,1.77
2019-03-16T08:19:45.382Z,1.10
2019-03-16T08:22:15.487Z,1.60
2019-03-16T08:24:45.575Z,1.40
2019-03-16T08:27:15.605Z,1.50
2019-03-16T08:29:45.727Z,1.10
2019-03-16T08:32:15.830Z,1.97
2019-03-16T08:34:46.042Z,2.73
2019-03-16T08:37:16.191Z,1.17
2019-03-16T08:39:46.394Z,1.37
2019-03-16T08:42:16.923Z,1.60
2019-03-16T08:44:47.241Z,1.53
2019-03-16T08:47:17.327Z,1.63
2019-03-16T08:49:47.418Z,2.13
2019-03-16T08:52:17.543Z,1.80
2019-03-16T08:54:47.796Z,1.50
2019-03-16T08:57:17.844Z,2.40
2019-03-16T08:59:47.852Z,2.07
2019-03-16T09:02:17.843Z,2.03
2019-03-16T09:04:47.902Z,1.60
2019-03-16T09:07:17.953Z,1.95
2019-03-16T09:09:48.030Z,1.90
2019-03-16T09:12:18.004Z,1.70
2019-03-16T09:14:48.028Z,2.13
2019-03-16T09:17:18.332Z,1.90
2019-03-16T09:19:48.356Z,2.40
2019-03-16T09:22:18.402Z,2.80
2019-03-16T09:24:48.455Z,2.33
2019-03-16T09:27:30.287Z,2.70
2019-03-16T09:29:50.512Z,2.10
2019-03-16T09:32:20.908Z,2.07
2019-03-16T09:34:50.890Z,2.83
2019-03-16T09:37:20.952Z,3.63
2019-03-16T09:39:51.052Z,3.73
2019-03-16T09:42:21.029Z,2.27
2019-03-16T09:44:52.127Z,2.37
2019-03-16T09:47:22.298Z,3.60
2019-03-16T09:49:52.288Z,3.63
2019-03-16T09:52:22.440Z,3.47
2019-03-16T09:54:53.574Z,3.40
2019-03-16T09:57:23.742Z,3.83
2019-03-16T09:59:53.940Z,2.97
2019-03-16T10:02:23.977Z,3.70
2019-03-16T10:04:53.970Z,2.77
2019-03-16T10:07:24.202Z,2.93
2019-03-16T10:09:54.310Z,2.80
2019-03-16T10:12:24.383Z,3.60
2019-03-16T10:14:55.417Z,4.27
2019-03-16T10:17:25.459Z,3.40
2019-03-16T10:19:56.548Z,3.47
2019-03-16T10:22:26.559Z,3.17
2019-03-16T10:24:56.551Z,3.20
2019-03-16T10:27:26.610Z,3.00
2019-03-16T10:29:56.619Z,2.87
2019-03-16T10:32:26.815Z,2.77
2019-03-16T10:34:56.864Z,3.47
2019-03-16T10:37:26.930Z,2.67
2019-03-16T10:39:57.091Z,2.73
2019-03-16T10:42:27.134Z,2.40
2019-03-16T10:44:57.471Z,2.40
2019-03-16T10:47:27.659Z,2.33
2019-03-16T10:49:57.672Z,2.40
2019-03-16T10:52:28.677Z,2.33
2019-03-16T10:54:58.817Z,2.80
2019-03-16T10:57:28.995Z,2.07
2019-03-16T10:59:59.188Z,2.40
2019-03-16T11:02:29.444Z,3.50
2019-03-16T11:04:59.532Z,2.53
2019-03-16T11:07:29.757Z,2.00
2019-03-16T11:10:00.038Z,2.60
2019-03-16T11:12:30.120Z,3.20
2019-03-16T11:15:00.264Z,3.20
2019-03-16T11:17:30.683Z,2.57
2019-03-16T11:20:00.988Z,2.60
2019-03-16T11:22:31.201Z,2.53
2019-03-16T11:25:01.446Z,3.20
2019-03-16T11:27:31.726Z,3.53
2019-03-16T11:30:01.911Z,3.27
2019-03-16T11:32:33.480Z,3.53
2019-03-16T11:35:04.495Z,3.97
2019-03-16T11:37:34.640Z,3.20
2019-03-16T11:40:06.790Z,3.13
2019-03-16T11:42:37.096Z,4.03
2019-03-16T11:45:08.118Z,2.95
2019-03-16T11:47:38.278Z,3.17
2019-03-16T11:50:08.446Z,3.77
2019-03-16T11:52:39.632Z,3.33
2019-03-16T11:55:09.749Z,3.63
2019-03-16T11:57:39.889Z,2.83
2019-03-16T12:00:11.469Z,3.27
2019-03-16T12:02:42.057Z,2.77
2019-03-16T12:05:12.253Z,2.63
2019-03-16T12:07:42.335Z,4.23
2019-03-16T12:10:12.430Z,2.87
2019-03-16T12:12:42.515Z,2.80
2019-03-16T12:15:12.627Z,2.47
2019-03-16T12:17:43.724Z,2.43
2019-03-16T12:20:13.772Z,2.40
2019-03-16T12:22:43.811Z,2.80
2019-03-16T12:25:14.664Z,2.43
2019-03-16T12:27:44.730Z,2.53
2019-03-16T12:30:14.802Z,2.50
2019-03-16T12:32:45.948Z,2.47
2019-03-16T12:35:17.305Z,2.60
2019-03-16T12:37:47.823Z,2.67
2019-03-16T12:40:17.918Z,1.80
2019-03-16T12:42:48.022Z,2.13
2019-03-16T12:45:20.372Z,2.37
2019-03-16T12:47:50.111Z,1.97
2019-03-16T12:50:20.199Z,1.93
2019-03-16T12:52:50.314Z,2.43
2019-03-16T12:55:20.584Z,1.80
2019-03-16T12:57:52.420Z,1.97
2019-03-16T13:00:22.898Z,1.80
2019-03-16T13:02:53.177Z,1.90
2019-03-16T13:05:23.243Z,1.93
2019-03-16T13:07:53.346Z,1.53
2019-03-16T13:10:23.417Z,1.53
2019-03-16T13:12:53.834Z,3.10
2019-03-16T13:15:23.818Z,1.87
2019-03-16T13:17:53.813Z,1.53
2019-03-16T13:20:24.244Z,1.80
2019-03-16T13:22:54.339Z,2.13
2019-03-16T13:25:24.397Z,1.57
2019-03-16T13:27:54.458Z,2.40
2019-03-16T13:30:25.084Z,1.70
2019-03-16T13:32:55.441Z,1.83
2019-03-16T13:35:25.652Z,1.37
2019-03-16T13:37:57.117Z,1.50
2019-03-16T13:40:27.554Z,1.70
2019-03-16T13:42:57.762Z,1.60
2019-03-16T13:45:27.927Z,1.23
2019-03-16T13:47:58.233Z,1.67
2019-03-16T13:50:29.578Z,1.20
2019-03-16T13:53:00.048Z,0.90
2019-03-16T13:55:30.830Z,1.80
2019-03-16T13:58:00.942Z,1.40
2019-03-16T14:00:30.999Z,1.57
2019-03-16T14:03:01.461Z,1.77
2019-03-16T14:05:32.028Z,1.03
2019-03-16T14:08:02.247Z,1.30
2019-03-16T14:10:32.723Z,1.30
2019-03-16T14:13:02.908Z,1.50
2019-03-16T14:15:34.154Z,1.37
2019-03-16T14:18:04.748Z,2.60
2019-03-16T14:20:35.497Z,1.20
2019-03-16T14:23:06.639Z,1.47
2019-03-16T14:25:36.996Z,1.23
2019-03-16T14:28:07.094Z,1.07
2019-03-16T14:30:41.804Z,1.67
2019-03-16T14:33:08.765Z,1.70
2019-03-16T14:35:38.926Z,1.50
2019-03-16T14:38:09.118Z,1.30
2019-03-16T14:40:40.082Z,1.20
2019-03-16T14:43:11.509Z,1.60
2019-03-16T14:45:41.800Z,1.40
2019-03-16T14:48:11.915Z,1.40
2019-03-16T14:50:41.922Z,1.33
2019-03-16T14:53:11.946Z,1.33
2019-03-16T14:55:42.159Z,1.67
2019-03-16T14:58:13.408Z,2.00
2019-03-16T15:00:43.616Z,1.53
2019-03-16T15:03:13.582Z,2.00
2019-03-16T15:05:46.069Z,1.70
2019-03-16T15:08:16.508Z,1.47
2019-03-16T15:10:46.681Z,1.27
2019-03-16T15:13:16.857Z,1.77
2019-03-16T15:15:47.107Z,1.50
2019-03-16T15:18:17.200Z,1.27
2019-03-16T15:20:47.502Z,1.60
2019-03-16T15:23:17.776Z,1.43
2019-03-16T15:25:47.990Z,1.43
2019-03-16T15:28:18.261Z,1.43
2019-03-16T15:30:51.066Z,1.43
2019-03-16T15:33:20.540Z,1.70
2019-03-16T15:35:53.359Z,1.70
2019-03-16T15:38:23.476Z,1.10
2019-03-16T15:40:53.474Z,1.20
2019-03-16T15:43:23.830Z,1.30
2019-03-16T15:45:56.443Z,1.20
2019-03-16T15:48:25.766Z,1.30
2019-03-16T15:50:55.821Z,1.53
2019-03-16T15:53:25.823Z,1.60
2019-03-16T15:55:57.007Z,2.30
2019-03-16T15:58:27.091Z,1.43
2019-03-16T16:01:03.547Z,1.60
2019-03-16T16:03:28.885Z,1.13
2019-03-16T16:05:59.161Z,1.20
2019-03-16T16:08:29.211Z,1.13
2019-03-16T16:11:01.255Z,1.30
2019-03-16T16:13:31.553Z,1.40
2019-03-16T16:16:01.604Z,1.07
2019-03-16T16:18:31.738Z,1.50
2019-03-16T16:21:02.164Z,1.30
2019-03-16T16:23:36.045Z,1.30
2019-03-16T16:26:06.143Z,1.43
2019-03-16T16:28:36.235Z,1.43
2019-03-16T16:31:15.654Z,2.30
2019-03-16T16:33:38.063Z,1.77
2019-03-16T16:36:08.607Z,1.47
2019-03-16T16:38:38.907Z,1.33
2019-03-16T16:41:09.705Z,1.37
2019-03-16T16:43:40.203Z,1.20
2019-03-16T16:46:10.453Z,1.23
2019-03-16T16:48:40.446Z,1.10
2019-03-16T16:51:10.606Z,1.00
2019-03-16T16:53:40.662Z,1.43
2019-03-16T16:56:10.782Z,1.37
2019-03-16T16:58:40.820Z,1.23
2019-03-16T17:01:10.812Z,1.23
2019-03-16T17:03:40.875Z,1.70
2019-03-16T17:06:10.873Z,0.97
2019-03-16T17:08:40.894Z,1.30
2019-03-16T17:11:11.033Z,1.23
2019-03-16T17:13:41.220Z,1.53
2019-03-16T17:16:11.560Z,1.37
2019-03-16T17:18:41.644Z,1.17
2019-03-16T17:21:12.626Z,1.23
2019-03-16T17:23:42.743Z,1.57
2019-03-16T17:26:13.079Z,1.30
2019-03-16T17:28:43.090Z,2.37
2019-03-16T17:31:13.524Z,1.07
2019-03-16T17:33:43.565Z,1.20
2019-03-16T17:36:13.576Z,1.23
2019-03-16T17:38:43.884Z,1.10
2019-03-16T17:41:14.095Z,1.33
2019-03-16T17:43:44.107Z,1.30
2019-03-16T17:46:14.075Z,1.23
2019-03-16T17:48:44.068Z,1.23
2019-03-16T17:51:14.053Z,1.50
2019-03-16T17:53:47.056Z,1.30
2019-03-16T17:56:17.970Z,1.30
2019-03-16T17:58:48.264Z,1.23
2019-03-16T18:01:21.388Z,1.40
2019-03-16T18:03:52.676Z,1.07
2019-03-16T18:06:22.901Z,1.67
2019-03-16T18:08:52.930Z,1.80
2019-03-16T18:11:23.095Z,1.00
2019-03-16T18:13:53.078Z,1.20
2019-03-16T18:16:23.095Z,1.97
2019-03-16T18:18:53.061Z,1.43
2019-03-16T18:21:23.152Z,1.20
2019-03-16T18:23:53.262Z,1.40
2019-03-16T18:26:23.244Z,1.57
2019-03-16T18:28:54.262Z,1.33
2019-03-16T18:31:24.309Z,1.43
2019-03-16T18:33:54.345Z,1.50
2019-03-16T18:36:24.463Z,1.40
2019-03-16T18:38:54.498Z,2.10
2019-03-16T18:41:24.530Z,1.70
2019-03-16T18:43:54.566Z,1.30
2019-03-16T18:46:25.687Z,1.70
2019-03-16T18:48:55.778Z,1.70
2019-03-16T18:51:25.827Z,1.30
2019-03-16T18:53:55.863Z,1.70
2019-03-16T18:56:25.956Z,1.67
2019-03-16T18:58:55.956Z,1.83
2019-03-16T19:01:26.069Z,1.37
2019-03-16T19:03:56.195Z,1.40
2019-03-16T19:06:27.394Z,1.70
2019-03-16T19:08:57.397Z,1.50
2019-03-16T19:11:27.444Z,1.50
2019-03-16T19:13:57.420Z,1.77
2019-03-16T19:16:27.583Z,1.70
2019-03-16T19:18:57.593Z,1.60
2019-03-16T19:21:27.631Z,1.67
2019-03-16T19:23:57.744Z,2.60
2019-03-16T19:26:29.970Z,1.50
2019-03-16T19:28:59.463Z,1.57
2019-03-16T19:31:29.433Z,1.90
2019-03-16T19:33:59.439Z,2.07
2019-03-16T19:36:29.409Z,1.57
2019-03-16T19:38:59.445Z,1.27
2019-03-16T19:41:30.646Z,2.33
2019-03-16T19:44:00.699Z,1.87
2019-03-16T19:46:30.725Z,2.00
2019-03-16T19:49:00.805Z,1.83
2019-03-16T19:51:30.795Z,1.67
2019-03-16T19:54:00.950Z,1.97
2019-03-16T19:56:31.966Z,2.17
2019-03-16T19:59:01.979Z,2.23
2019-03-16T20:01:32.003Z,2.20
2019-03-16T20:04:01.991Z,1.93
2019-03-16T20:06:31.957Z,2.00
2019-03-16T20:09:05.531Z,2.03
2019-03-16T20:11:35.667Z,1.93
2019-03-16T20:14:05.759Z,2.30
2019-03-16T20:16:35.853Z,2.03
2019-03-16T20:19:05.960Z,2.30
2019-03-16T20:21:36.044Z,2.60
2019-03-16T20:24:06.120Z,2.90
2019-03-16T20:26:38.186Z,2.10
2019-03-16T20:29:08.222Z,2.00
2019-03-16T20:31:46.866Z,2.40
2019-03-16T20:34:09.988Z,2.77
2019-03-16T20:36:39.993Z,2.63
2019-03-16T20:39:10.088Z,2.30
2019-03-16T20:41:40.162Z,1.87
2019-03-16T20:44:10.253Z,2.47
2019-03-16T20:46:40.414Z,2.40
2019-03-16T20:49:10.394Z,3.13
2019-03-16T20:51:40.429Z,3.13
2019-03-16T20:54:10.433Z,2.90
2019-03-16T20:56:40.549Z,2.27
2019-03-16T20:59:10.589Z,2.30
2019-03-16T21:01:40.716Z,2.70
2019-03-16T21:04:10.847Z,2.33
2019-03-16T21:06:40.881Z,3.00
2019-03-16T21:09:10.929Z,2.40
2019-03-16T21:11:41.058Z,2.47
2019-03-16T21:14:11.258Z,2.20
2019-03-16T21:16:41.335Z,2.43
2019-03-16T21:19:11.626Z,3.33
2019-03-16T21:21:41.774Z,2.57
2019-03-16T21:24:12.247Z,2.70
2019-03-16T21:26:51.953Z,2.20
2019-03-16T21:29:13.996Z,2.23
2019-03-16T21:31:44.069Z,2.63
2019-03-16T21:34:14.050Z,3.00
2019-03-16T21:36:44.232Z,2.47
2019-03-16T21:39:16.857Z,2.57
2019-03-16T21:41:46.107Z,2.23
2019-03-16T21:44:16.386Z,2.80
2019-03-16T21:46:47.045Z,2.60
2019-03-16T21:49:17.450Z,2.73
2019-03-16T21:51:47.574Z,2.60
2019-03-16T21:54:18.742Z,2.67
2019-03-16T21:56:48.756Z,2.63
2019-03-16T21:59:18.866Z,2.53
2019-03-16T22:01:49.192Z,3.17
2019-03-16T22:04:19.502Z,2.57
2019-03-16T22:06:49.703Z,2.50
2019-03-16T22:09:20.266Z,3.37
2019-03-16T22:11:50.369Z,2.80
2019-03-16T22:14:20.605Z,2.77
2019-03-16T22:16:50.625Z,3.03
2019-03-16T22:19:20.726Z,2.90
2019-03-16T22:21:50.998Z,2.80
2019-03-16T22:24:21.323Z,2.50
2019-03-16T22:26:51.689Z,2.87
2019-03-16T22:29:21.678Z,3.27
2019-03-16T22:31:51.771Z,2.83
2019-03-16T22:34:21.788Z,2.83
2019-03-16T22:36:51.761Z,2.53
2019-03-16T22:39:21.767Z,3.40
2019-03-16T22:41:51.889Z,2.63
2019-03-16T22:44:22.105Z,2.70
2019-03-16T22:46:52.213Z,3.17
2019-03-16T22:49:22.231Z,3.30
2019-03-16T22:51:59.509Z,2.77
2019-03-16T22:54:29.677Z,3.53
2019-03-16T22:56:59.811Z,3.30
2019-03-16T22:59:30.412Z,2.60
2019-03-16T23:02:00.529Z,2.77
2019-03-16T23:04:30.597Z,2.60
2019-03-16T23:07:00.591Z,2.77
2019-03-16T23:09:30.630Z,2.63
2019-03-16T23:12:00.714Z,2.90
2019-03-16T23:14:30.746Z,3.07
2019-03-16T23:17:01.683Z,2.60
2019-03-16T23:19:32.770Z,3.50
2019-03-16T23:22:04.185Z,2.95
2019-03-16T23:24:34.163Z,2.87
2019-03-16T23:27:04.488Z,2.73
2019-03-16T23:29:35.715Z,2.80
2019-03-16T23:32:06.383Z,2.93
2019-03-16T23:34:36.397Z,2.70
2019-03-16T23:37:06.557Z,3.57
2019-03-16T23:39:36.563Z,3.13
2019-03-16T23:42:06.639Z,3.00
2019-03-16T23:44:36.668Z,2.37
2019-03-16T23:47:06.965Z,2.77
2019-03-16T23:49:37.074Z,2.73
2019-03-16T23:52:07.140Z,2.67
2019-03-16T23:54:37.272Z,2.43
2019-03-16T23:57:08.372Z,2.53
2019-03-16T23:59:38.355Z,2.60
